Time;durP1;ratioP1;P1;durP2;ratioP2;P2;SDS_P1;SDS_P2;PMS_P1;PMS_P2;Temp;Humidity;BMP_temperature;BMP_pressure;BME280_temperature;BME280_humidity;BME280_pressure;Samples;Min_cycle;Max_cycle;Signal;HPM_P1;HPM_P2
2023/04/30 00:00:51;;;;;;;0.30;0.30;;;15.80;99.90;;;;;;5031471;28;20488;-80
2023/04/30 00:03:17;;;;;;;0.13;0.13;;;15.70;99.90;;;;;;5058843;28;20082;-79
2023/04/30 00:05:43;;;;;;;0.33;0.23;;;15.60;99.90;;;;;;5057857;28;20149;-81
2023/04/30 00:08:08;;;;;;;0.00;0.00;;;15.70;99.90;;;;;;5064404;28;20021;-81
2023/04/30 00:10:34;;;;;;;0.10;0.10;;;15.70;99.90;;;;;;5064584;28;20030;-82
2023/04/30 00:13:00;;;;;;;0.10;0.10;;;15.80;99.90;;;;;;5062918;28;20071;-82
2023/04/30 00:15:25;;;;;;;0.10;0.10;;;15.80;99.90;;;;;;5062613;28;20772;-82
2023/04/30 00:17:52;;;;;;;0.30;0.30;;;15.60;99.90;;;;;;5062142;28;20029;-80
2023/04/30 00:20:17;;;;;;;0.20;0.20;;;15.70;99.90;;;;;;5062341;28;20094;-80
2023/04/30 00:22:43;;;;;;;0.07;0.07;;;15.70;99.90;;;;;;5060306;28;20466;-81
2023/04/30 00:25:09;;;;;;;0.20;0.20;;;15.60;99.90;;;;;;5059468;28;20109;-82
2023/04/30 00:27:35;;;;;;;0.47;0.33;;;15.70;99.90;;;;;;5060486;28;20368;-82
2023/04/30 00:30:01;;;;;;;0.10;0.10;;;15.70;99.90;;;;;;5059711;28;20202;-82
2023/04/30 00:32:27;;;;;;;0.20;0.20;;;15.60;99.90;;;;;;5053002;28;20108;-80
2023/04/30 00:34:52;;;;;;;5.17;0.90;;;15.60;99.90;;;;;;5059967;28;20040;-79
2023/04/30 00:37:18;;;;;;;0.33;0.33;;;15.60;99.90;;;;;;5039877;28;20119;-81
2023/04/30 00:39:44;;;;;;;0.30;0.30;;;15.70;99.90;;;;;;5041547;28;20028;-82
2023/04/30 00:42:09;;;;;;;0.10;0.10;;;15.60;99.90;;;;;;5055165;28;20039;-80
2023/04/30 00:44:35;;;;;;;0.10;0.10;;;15.70;99.90;;;;;;5057155;28;21150;-81
2023/04/30 00:47:01;;;;;;;0.20;0.20;;;15.60;99.90;;;;;;5061989;28;20115;-81
2023/04/30 00:49:27;;;;;;;0.00;0.00;;;15.60;99.90;;;;;;5051693;28;20036;-79
2023/04/30 00:51:53;;;;;;;0.73;0.73;;;15.50;99.90;;;;;;5061769;28;20817;-80
2023/04/30 00:54:20;;;;;;;0.20;0.20;;;15.50;99.90;;;;;;5051850;28;20029;-81
2023/04/30 00:56:46;;;;;;;0.10;0.10;;;15.50;99.90;;;;;;5054616;28;20087;-81
2023/04/30 00:59:13;;;;;;;0.00;0.00;;;15.50;99.90;;;;;;5044526;28;20997;-82
2023/04/30 01:01:38;;;;;;;;;;;15.40;99.90;;;;;;5060769;28;20026;-80
2023/04/30 01:04:04;;;;;;;0.10;0.10;;;15.50;99.90;;;;;;5044677;28;19908;-80
2023/04/30 01:06:31;;;;;;;0.13;0.13;;;15.60;99.90;;;;;;5050220;28;20810;-80
2023/04/30 01:08:57;;;;;;;0.50;0.50;;;15.60;99.90;;;;;;5061036;28;20032;-81
2023/04/30 01:11:31;;;;;;;3.33;0.85;;;15.50;99.90;;;;;;5060711;28;20032;-80
2023/04/30 01:14:12;;;;;;;0.30;0.22;;;15.40;99.90;;;;;;5061804;28;20029;-79
2023/04/30 01:16:48;;;;;;;0.32;0.30;;;15.20;99.90;;;;;;5061776;28;20020;-80
2023/04/30 01:19:34;;;;;;;0.30;0.30;;;15.40;99.90;;;;;;5043883;28;20043;-81
2023/04/30 01:22:03;;;;;;;0.20;0.20;;;15.30;99.90;;;;;;5060812;28;20079;-80
2023/04/30 01:24:56;;;;;;;0.00;0.00;;;15.30;99.90;;;;;;5057202;28;20021;-82
2023/04/30 01:27:38;;;;;;;0.10;0.10;;;15.30;99.90;;;;;;5053261;28;20064;-81
2023/04/30 01:30:06;;;;;;;0.40;0.40;;;15.30;99.90;;;;;;5057988;28;20105;-81
2023/04/30 01:32:31;;;;;;;0.22;0.22;;;15.30;99.90;;;;;;5039335;28;20033;-81
2023/04/30 01:34:57;;;;;;;0.17;0.17;;;15.40;99.90;;;;;;5037573;28;20028;-79
2023/04/30 01:38:03;;;;;;;0.27;0.27;;;15.40;99.90;;;;;;5058425;28;20021;-80
2023/04/30 01:40:35;;;;;;;;;;;15.20;99.90;;;;;;5022437;28;20033;-81
2023/04/30 01:43:37;;;;;;;3.40;0.32;;;15.10;99.90;;;;;;5053945;28;19908;-80
2023/04/30 01:46:17;;;;;;;0.08;0.08;;;15.10;99.90;;;;;;5057020;28;20043;-81
2023/04/30 01:48:55;;;;;;;0.00;0.00;;;15.10;99.90;;;;;;5052009;28;20037;-82
2023/04/30 01:51:37;;;;;;;0.43;0.43;;;15.10;99.90;;;;;;5055615;28;20093;-82
2023/04/30 01:54:21;;;;;;;0.20;0.20;;;15.10;99.90;;;;;;5049737;28;20103;-82
2023/04/30 01:57:11;;;;;;;0.30;0.30;;;15.20;99.90;;;;;;5050984;28;20138;-80
2023/04/30 01:59:39;;;;;;;0.00;0.00;;;15.10;99.90;;;;;;5060797;28;20012;-81
2023/04/30 02:02:05;;;;;;;0.10;0.10;;;15.00;99.90;;;;;;5052513;28;20028;-81
2023/04/30 02:04:31;;;;;;;0.20;0.20;;;15.00;99.90;;;;;;5052419;28;20825;-81
2023/04/30 02:06:57;;;;;;;0.10;0.10;;;15.00;99.90;;;;;;5049673;28;20051;-80
2023/04/30 02:09:23;;;;;;;0.45;0.45;;;15.00;99.90;;;;;;5057989;28;20491;-85
2023/04/30 02:11:50;;;;;;;0.10;0.10;;;14.90;99.90;;;;;;5045842;28;20040;-79
2023/04/30 02:14:15;;;;;;;0.00;0.00;;;14.90;99.90;;;;;;5055686;28;20162;-80
2023/04/30 02:16:41;;;;;;;0.10;0.10;;;14.90;99.90;;;;;;5055770;28;20734;-80
2023/04/30 02:19:07;;;;;;;0.10;0.10;;;14.80;99.90;;;;;;5051017;28;20025;-78
2023/04/30 02:21:36;;;;;;;0.20;0.20;;;14.90;99.90;;;;;;5042863;28;20120;-79
2023/04/30 02:24:01;;;;;;;0.20;0.20;;;14.80;99.90;;;;;;5048067;28;20033;-80
2023/04/30 02:26:27;;;;;;;0.37;0.37;;;14.90;99.90;;;;;;5051583;28;20385;-79
2023/04/30 02:28:53;;;;;;;0.43;0.43;;;14.80;99.90;;;;;;5054502;28;20032;-82
2023/04/30 02:31:18;;;;;;;0.00;0.00;;;14.80;99.90;;;;;;5047920;28;20550;-78
2023/04/30 02:33:44;;;;;;;0.10;0.10;;;14.80;99.90;;;;;;5058884;28;20036;-79
2023/04/30 02:36:10;;;;;;;0.10;0.10;;;14.90;99.90;;;;;;5029981;28;20025;-77
2023/04/30 02:38:35;;;;;;;0.20;0.20;;;14.70;99.90;;;;;;5054803;28;20044;-77
2023/04/30 02:41:02;;;;;;;1.00;0.53;;;14.70;99.90;;;;;;5041761;28;20168;-77
2023/04/30 02:43:27;;;;;;;0.10;0.10;;;14.60;99.90;;;;;;5053159;28;20471;-77
2023/04/30 02:45:53;;;;;;;0.10;0.10;;;14.70;99.90;;;;;;5052009;28;20155;-78
2023/04/30 02:48:19;;;;;;;0.10;0.10;;;14.70;99.90;;;;;;5051142;28;20029;-79
2023/04/30 02:50:44;;;;;;;0.13;0.13;;;14.60;99.90;;;;;;5056225;28;20024;-79
2023/04/30 02:53:10;;;;;;;0.10;0.10;;;14.50;99.90;;;;;;5053955;28;20040;-79
2023/04/30 02:55:36;;;;;;;0.60;0.60;;;14.50;99.90;;;;;;5042355;28;20037;-79
2023/04/30 02:58:01;;;;;;;0.10;0.10;;;14.60;99.90;;;;;;5051198;28;20093;-79
2023/04/30 03:00:27;;;;;;;0.27;0.27;;;14.50;99.90;;;;;;5048664;28;20021;-77
2023/04/30 03:02:53;;;;;;;0.20;0.20;;;14.50;99.90;;;;;;5056120;28;20079;-79
2023/04/30 03:05:19;;;;;;;0.13;0.13;;;14.40;99.90;;;;;;5052190;28;20083;-76
2023/04/30 03:07:44;;;;;;;0.10;0.10;;;14.40;99.90;;;;;;5056406;28;20025;-78
2023/04/30 03:10:10;;;;;;;0.10;0.10;;;14.30;99.90;;;;;;5060755;28;20028;-79
2023/04/30 03:12:36;;;;;;;0.20;0.20;;;14.30;99.90;;;;;;5060575;28;20086;-79
2023/04/30 03:15:01;;;;;;;0.63;0.63;;;14.20;99.90;;;;;;5060460;28;20131;-78
2023/04/30 03:17:27;;;;;;;0.40;0.40;;;14.10;99.90;;;;;;5061702;28;20111;-78
2023/04/30 03:19:53;;;;;;;0.13;0.13;;;14.20;99.90;;;;;;5058138;28;20033;-79
2023/04/30 03:22:19;;;;;;;0.10;0.10;;;14.10;99.90;;;;;;5061254;28;20031;-77
2023/04/30 03:24:45;;;;;;;0.30;0.30;;;14.00;99.90;;;;;;5056549;28;20555;-78
2023/04/30 03:27:11;;;;;;;0.25;0.25;;;14.00;99.90;;;;;;5058699;28;20057;-77
2023/04/30 03:29:36;;;;;;;0.27;0.20;;;13.90;99.90;;;;;;5054921;28;20476;-77
2023/04/30 03:32:02;;;;;;;0.10;0.10;;;13.90;99.90;;;;;;5061375;28;20102;-78
2023/04/30 03:34:30;;;;;;;0.10;0.10;;;13.80;99.90;;;;;;5056841;28;20016;-79
2023/04/30 03:36:56;;;;;;;0.57;0.57;;;13.80;99.90;;;;;;5054304;28;20106;-80
2023/04/30 03:39:21;;;;;;;0.20;0.20;;;13.80;99.90;;;;;;5055722;28;20039;-78
2023/04/30 03:41:47;;;;;;;0.30;0.30;;;13.70;99.90;;;;;;5059881;28;20029;-79
2023/04/30 03:44:14;;;;;;;0.43;0.37;;;13.60;99.90;;;;;;5055248;28;20029;-79
2023/04/30 03:46:42;;;;;;;0.00;0.00;;;13.60;99.90;;;;;;5056695;28;20028;-78
2023/04/30 03:49:08;;;;;;;0.28;0.28;;;13.60;99.90;;;;;;5054230;28;20053;-80
2023/04/30 03:51:38;;;;;;;0.08;0.08;;;13.60;99.90;;;;;;5040762;28;20067;-81
2023/04/30 03:54:07;;;;;;;0.20;0.20;;;13.60;99.90;;;;;;5052254;28;20029;-77
2023/04/30 03:56:33;;;;;;;0.20;0.20;;;13.60;99.90;;;;;;5057599;28;20130;-83
2023/04/30 03:59:00;;;;;;;0.05;0.05;;;13.60;99.90;;;;;;5051233;28;20017;-82
2023/04/30 04:01:25;;;;;;;0.00;0.00;;;13.70;99.90;;;;;;5053007;28;20044;-82
2023/04/30 04:03:52;;;;;;;0.00;0.00;;;13.70;99.90;;;;;;5038295;28;20029;-83
2023/04/30 04:06:18;;;;;;;0.00;0.00;;;13.60;99.90;;;;;;5054609;28;20032;-84
2023/04/30 04:08:43;;;;;;;0.20;0.20;;;13.80;99.90;;;;;;5060775;28;20044;-83
2023/04/30 04:11:10;;;;;;;0.10;0.10;;;13.70;99.90;;;;;;5063661;28;20028;-82
2023/04/30 04:13:36;;;;;;;0.43;0.43;;;13.60;99.90;;;;;;5062423;28;20051;-85
2023/04/30 04:16:01;;;;;;;0.20;0.20;;;13.60;99.90;;;;;;5061516;28;20033;-82
2023/04/30 04:18:27;;;;;;;0.57;0.57;;;13.50;99.90;;;;;;5059484;28;20029;-78
2023/04/30 04:20:55;;;;;;;0.00;0.00;;;13.50;99.90;;;;;;5053668;28;20399;-77
2023/04/30 04:23:21;;;;;;;0.15;0.15;;;13.50;99.90;;;;;;5058595;28;20036;-76
2023/04/30 04:25:48;;;;;;;0.17;0.17;;;13.40;99.90;;;;;;5059254;28;20032;-78
2023/04/30 04:28:15;;;;;;;0.28;0.28;;;13.30;99.90;;;;;;5054011;28;20040;-79
2023/04/30 04:30:42;;;;;;;0.10;0.10;;;13.40;99.90;;;;;;5057831;28;20029;-79
2023/04/30 04:33:08;;;;;;;0.05;0.05;;;13.30;99.90;;;;;;5052299;28;20094;-79
2023/04/30 04:35:33;;;;;;;0.10;0.10;;;13.40;99.90;;;;;;5051953;28;20790;-82
2023/04/30 04:38:00;;;;;;;0.30;0.30;;;13.30;99.90;;;;;;5056216;28;20056;-80
2023/04/30 04:40:26;;;;;;;0.10;0.10;;;13.40;99.90;;;;;;5055346;28;20107;-78
2023/04/30 04:42:52;;;;;;;1.05;0.65;;;13.40;99.90;;;;;;5049835;28;20510;-80
2023/04/30 04:45:19;;;;;;;0.15;0.15;;;13.40;99.90;;;;;;5056855;28;20037;-84
2023/04/30 04:47:45;;;;;;;0.20;0.20;;;13.50;99.90;;;;;;5049211;28;20028;-83
2023/04/30 04:50:11;;;;;;;0.20;0.20;;;13.50;99.90;;;;;;5051926;28;20036;-87
2023/04/30 04:52:38;;;;;;;0.20;0.20;;;13.60;99.90;;;;;;5055524;28;20633;-82
2023/04/30 04:55:04;;;;;;;0.10;0.10;;;13.60;99.90;;;;;;5034354;28;20024;-82
2023/04/30 04:57:30;;;;;;;0.30;0.30;;;13.60;99.90;;;;;;5029424;28;20140;-83
2023/04/30 04:59:56;;;;;;;0.00;0.00;;;13.70;99.90;;;;;;5052140;28;20033;-81
2023/04/30 05:02:22;;;;;;;0.10;0.10;;;13.70;99.90;;;;;;5041931;28;20278;-81
2023/04/30 05:04:49;;;;;;;0.20;0.20;;;13.80;99.90;;;;;;5053649;28;20029;-80
2023/04/30 05:07:16;;;;;;;0.10;0.10;;;13.80;99.90;;;;;;5060359;28;20038;-79
2023/04/30 05:09:43;;;;;;;0.20;0.20;;;13.80;99.90;;;;;;5062525;28;20025;-81
2023/04/30 05:12:08;;;;;;;0.00;0.00;;;13.90;99.90;;;;;;5044177;28;20161;-81
2023/04/30 05:14:36;;;;;;;0.10;0.10;;;13.90;99.90;;;;;;5061395;28;20067;-80
2023/04/30 05:17:01;;;;;;;0.10;0.10;;;13.80;99.90;;;;;;5061377;28;20031;-78
2023/04/30 05:19:27;;;;;;;0.20;0.20;;;13.80;99.90;;;;;;5035964;28;20445;-81
2023/04/30 05:21:53;;;;;;;0.10;0.10;;;13.90;99.90;;;;;;5061194;28;20024;-79
2023/04/30 05:24:18;;;;;;;0.10;0.10;;;14.00;99.90;;;;;;5060079;28;20024;-78
2023/04/30 05:26:44;;;;;;;0.10;0.10;;;14.00;99.90;;;;;;5055154;28;20028;-79
2023/04/30 05:29:10;;;;;;;0.20;0.20;;;14.10;99.90;;;;;;5054221;28;20028;-79
2023/04/30 05:31:36;;;;;;;0.00;0.00;;;14.10;99.90;;;;;;5041805;28;20034;-79
2023/04/30 05:34:02;;;;;;;0.20;0.20;;;14.10;99.90;;;;;;5040183;28;20032;-80
2023/04/30 05:36:28;;;;;;;0.30;0.30;;;14.20;99.90;;;;;;5038803;28;20028;-81
2023/04/30 05:38:54;;;;;;;0.27;0.27;;;14.20;99.90;;;;;;5057089;28;20085;-79
2023/04/30 05:41:20;;;;;;;0.10;0.10;;;14.30;99.90;;;;;;5036616;28;20024;-79
2023/04/30 05:43:46;;;;;;;0.30;0.30;;;14.20;99.90;;;;;;5055312;28;20032;-79
2023/04/30 05:46:12;;;;;;;0.22;0.20;;;14.20;99.90;;;;;;5056193;28;20032;-79
2023/04/30 05:48:38;;;;;;;0.10;0.10;;;14.00;99.90;;;;;;5053927;28;20028;-78
2023/04/30 05:51:06;;;;;;;0.70;0.70;;;14.10;99.90;;;;;;5037861;28;20673;-80
2023/04/30 05:53:32;;;;;;;0.63;0.63;;;14.10;99.90;;;;;;5041345;28;20032;-79
2023/04/30 05:55:57;;;;;;;0.20;0.20;;;14.10;99.90;;;;;;5042551;28;20056;-79
2023/04/30 05:58:24;;;;;;;0.30;0.30;;;14.20;99.90;;;;;;5055175;28;20086;-78
2023/04/30 06:00:51;;;;;;;0.10;0.10;;;14.30;99.90;;;;;;5046042;28;20081;-79
2023/04/30 06:03:19;;;;;;;0.10;0.10;;;14.30;99.90;;;;;;5054866;28;20040;-78
2023/04/30 06:05:48;;;;;;;0.13;0.13;;;14.40;99.90;;;;;;5042170;28;20569;-78
2023/04/30 06:08:14;;;;;;;0.00;0.00;;;14.60;99.90;;;;;;5048763;28;20021;-78
2023/04/30 06:10:41;;;;;;;0.10;0.10;;;14.80;99.90;;;;;;5033403;28;20032;-78
2023/04/30 06:13:06;;;;;;;0.10;0.10;;;14.80;99.90;;;;;;5055009;28;20932;-78
2023/04/30 06:15:32;;;;;;;0.10;0.10;;;14.90;99.90;;;;;;5052741;28;20029;-79
2023/04/30 06:17:58;;;;;;;0.20;0.20;;;14.90;99.90;;;;;;5057762;28;20108;-79
2023/04/30 06:20:25;;;;;;;0.20;0.20;;;15.00;99.90;;;;;;5051712;28;20033;-78
2023/04/30 06:22:51;;;;;;;0.28;0.28;;;15.00;99.90;;;;;;5048489;28;20094;-78
2023/04/30 06:25:17;;;;;;;0.10;0.10;;;15.20;99.90;;;;;;5051649;28;20455;-79
2023/04/30 06:27:43;;;;;;;0.10;0.10;;;15.20;99.90;;;;;;5051002;28;20108;-78
2023/04/30 06:30:09;;;;;;;0.20;0.20;;;15.30;99.90;;;;;;5032806;28;20104;-79
2023/04/30 06:32:34;;;;;;;4.70;0.47;;;15.40;99.90;;;;;;5048989;28;20017;-79
2023/04/30 06:35:00;;;;;;;0.00;0.00;;;15.50;99.90;;;;;;5054920;28;20518;-76
2023/04/30 06:37:25;;;;;;;0.27;0.27;;;15.70;99.90;;;;;;5046528;28;20395;-76
2023/04/30 06:39:51;;;;;;;0.20;0.20;;;15.80;99.90;;;;;;5059074;28;20107;-76
2023/04/30 06:42:17;;;;;;;0.13;0.13;;;16.00;99.90;;;;;;5026666;28;20021;-76
2023/04/30 06:44:42;;;;;;;0.23;0.23;;;16.20;99.90;;;;;;5048824;28;20021;-76
2023/04/30 06:47:08;;;;;;;0.07;0.07;;;16.10;99.90;;;;;;5047166;28;20024;-75
2023/04/30 06:49:34;;;;;;;0.10;0.10;;;16.00;99.90;;;;;;5027672;28;20139;-75
2023/04/30 06:52:00;;;;;;;0.10;0.10;;;16.00;99.90;;;;;;5058435;28;20036;-76
2023/04/30 06:54:26;;;;;;;0.03;0.03;;;16.30;99.90;;;;;;5037708;28;20028;-78
2023/04/30 06:56:52;;;;;;;0.00;0.00;;;16.30;99.90;;;;;;5046075;28;20381;-81
2023/04/30 06:59:18;;;;;;;0.10;0.10;;;16.60;99.90;;;;;;5027689;28;20036;-81
2023/04/30 07:01:43;;;;;;;0.10;0.10;;;17.00;99.90;;;;;;5037685;28;20033;-82
2023/04/30 07:04:09;;;;;;;0.00;0.00;;;17.30;99.90;;;;;;5052766;28;20036;-81
2023/04/30 07:06:35;;;;;;;0.40;0.40;;;17.60;99.90;;;;;;5052352;28;20045;-81
2023/04/30 07:09:02;;;;;;;0.07;0.07;;;17.80;99.90;;;;;;5054552;28;20112;-81
2023/04/30 07:11:27;;;;;;;;;;;18.20;99.90;;;;;;5062536;28;20062;-81
2023/04/30 07:13:53;;;;;;;0.20;0.20;;;18.60;99.90;;;;;;5050423;28;20494;-81
2023/04/30 07:16:19;;;;;;;0.00;0.00;;;19.60;99.90;;;;;;5063438;28;20020;-82
2023/04/30 07:18:47;;;;;;;0.00;0.00;;;21.10;99.90;;;;;;5042595;28;20024;-82
2023/04/30 07:21:13;;;;;;;0.00;0.00;;;21.80;99.90;;;;;;5050262;28;20021;-82
2023/04/30 07:23:39;;;;;;;0.00;0.00;;;23.00;97.70;;;;;;5052208;28;20036;-82
2023/04/30 07:26:05;;;;;;;0.00;0.00;;;22.60;94.00;;;;;;5034663;28;20045;-82
2023/04/30 07:28:30;;;;;;;0.00;0.00;;;21.80;97.50;;;;;;5055328;28;20028;-81
2023/04/30 07:30:56;;;;;;;0.10;0.10;;;23.00;96.90;;;;;;5052996;28;20734;-82
2023/04/30 07:33:22;;;;;;;0.23;0.23;;;24.10;92.90;;;;;;5047748;28;20020;-82
2023/04/30 07:35:48;;;;;;;0.00;0.00;;;22.80;95.80;;;;;;5057929;28;20028;-82
2023/04/30 07:38:13;;;;;;;0.20;0.20;;;22.50;95.50;;;;;;5049689;28;20174;-81
2023/04/30 07:40:39;;;;;;;0.13;0.13;;;22.10;92.80;;;;;;5047807;28;20263;-79
2023/04/30 07:43:05;;;;;;;0.10;0.10;;;21.80;94.60;;;;;;5044777;28;20029;-78
2023/04/30 07:45:32;;;;;;;0.00;0.00;;;21.60;96.20;;;;;;5045058;28;20356;-79
2023/04/30 07:47:58;;;;;;;0.00;0.00;;;21.30;97.30;;;;;;5044860;28;20021;-79
2023/04/30 07:50:24;;;;;;;0.10;0.10;;;21.20;95.70;;;;;;5052944;28;20400;-80
2023/04/30 07:52:49;;;;;;;0.17;0.17;;;21.60;95.30;;;;;;5048865;28;20028;-80
2023/04/30 07:55:15;;;;;;;0.00;0.00;;;21.80;94.20;;;;;;5059720;28;20410;-80
2023/04/30 07:57:41;;;;;;;0.00;0.00;;;23.10;92.60;;;;;;5057408;28;20650;-81
2023/04/30 08:00:07;;;;;;;0.00;0.00;;;26.00;86.20;;;;;;5050536;28;20032;-78
2023/04/30 08:02:33;;;;;;;0.00;0.00;;;26.10;83.50;;;;;;5053477;28;20016;-78
2023/04/30 08:04:59;;;;;;;0.00;0.00;;;25.80;81.20;;;;;;5049065;28;20044;-79
2023/04/30 08:07:24;;;;;;;0.10;0.10;;;24.00;83.70;;;;;;5034197;28;20032;-79
2023/04/30 08:09:50;;;;;;;0.55;0.35;;;22.30;88.50;;;;;;5048172;28;20763;-78
2023/04/30 08:12:17;;;;;;;0.00;0.00;;;24.70;83.70;;;;;;5047247;28;20049;-77
2023/04/30 08:14:42;;;;;;;;;;;25.50;83.60;;;;;;5032865;28;20025;-78
2023/04/30 08:17:08;;;;;;;;;;;25.60;79.40;;;;;;5058307;28;19912;-81
2023/04/30 08:19:33;;;;;;;0.10;0.10;;;26.60;74.60;;;;;;5043977;28;19954;-80
2023/04/30 08:22:00;;;;;;;0.00;0.00;;;26.80;77.10;;;;;;5050986;28;20036;-81
2023/04/30 08:24:25;;;;;;;0.00;0.00;;;29.00;68.10;;;;;;5052349;28;20565;-80
2023/04/30 08:26:51;;;;;;;0.00;0.00;;;28.90;63.30;;;;;;5035887;28;20032;-80
2023/04/30 08:29:17;;;;;;;0.00;0.00;;;30.30;66.10;;;;;;5061309;28;20201;-80
2023/04/30 08:31:43;;;;;;;;;;;31.10;62.10;;;;;;5056922;28;20020;-81
2023/04/30 08:34:08;;;;;;;0.00;0.00;;;30.70;60.60;;;;;;5033714;28;19912;-84
2023/04/30 08:36:34;;;;;;;;;;;31.40;62.10;;;;;;5053617;28;20019;-80
2023/04/30 08:39:01;;;;;;;0.00;0.00;;;31.50;63.70;;;;;;5029603;28;19912;-81
2023/04/30 08:41:33;;;;;;;0.00;0.00;;;32.20;60.80;;;;;;5028081;28;20852;-81
2023/04/30 08:44:02;;;;;;;0.13;0.13;;;31.90;57.20;;;;;;5033040;28;20450;-83
2023/04/30 08:46:31;;;;;;;0.00;0.00;;;31.50;56.40;;;;;;5025768;28;20037;-80
2023/04/30 08:48:57;;;;;;;0.00;0.00;;;30.90;57.80;;;;;;5036381;28;20040;-81
2023/04/30 08:51:25;;;;;;;0.00;0.00;;;31.00;55.10;;;;;;5029381;28;20021;-81
2023/04/30 08:53:54;;;;;;;0.40;0.28;;;31.50;51.80;;;;;;5053978;28;20067;-81
2023/04/30 08:56:20;;;;;;;0.10;0.10;;;32.50;56.10;;;;;;5049342;28;20081;-80
2023/04/30 08:58:45;;;;;;;0.00;0.00;;;32.30;55.40;;;;;;5057135;28;20067;-80
2023/04/30 09:01:12;;;;;;;0.00;0.00;;;32.30;53.40;;;;;;5046796;28;20886;-78
2023/04/30 09:03:38;;;;;;;0.10;0.10;;;32.80;54.50;;;;;;5036924;28;20051;-83
2023/04/30 09:06:04;;;;;;;0.00;0.00;;;32.70;52.40;;;;;;5043415;28;20473;-82
2023/04/30 09:08:41;;;;;;;;;;;32.20;53.60;;;;;;5047951;28;20029;-81
2023/04/30 09:11:39;;;;;;;0.00;0.00;;;32.80;52.80;;;;;;5044145;28;19962;-80
2023/04/30 09:14:05;;;;;;;0.00;0.00;;;32.90;51.50;;;;;;4987691;28;20032;-82
2023/04/30 09:16:51;;;;;;;0.10;0.10;;;32.70;51.40;;;;;;5047756;28;20029;-81
2023/04/30 09:19:28;;;;;;;0.00;0.00;;;30.90;50.10;;;;;;5055674;28;20096;-82
2023/04/30 09:21:54;;;;;;;0.05;0.05;;;29.40;54.20;;;;;;5053267;28;20028;-81
2023/04/30 09:24:20;;;;;;;;;;;30.20;57.70;;;;;;5026152;28;20021;-82
2023/04/30 09:26:46;;;;;;;0.03;0.03;;;30.20;53.40;;;;;;5045146;28;21484;-82
2023/04/30 09:29:11;;;;;;;;;;;28.70;53.30;;;;;;5034890;28;20115;-80
2023/04/30 09:31:38;;;;;;;0.03;0.00;;;27.40;57.00;;;;;;5055931;28;19957;-81
2023/04/30 09:34:05;;;;;;;0.00;0.00;;;27.60;55.20;;;;;;5045898;28;20514;-81
2023/04/30 09:36:31;;;;;;;0.10;0.10;;;28.70;56.80;;;;;;5045756;28;20583;-81
2023/04/30 09:39:07;;;;;;;;;;;31.20;50.20;;;;;;5045794;28;20029;-81
2023/04/30 09:41:33;;;;;;;0.00;0.00;;;30.30;51.90;;;;;;5043582;28;20562;-80
2023/04/30 09:43:59;;;;;;;0.30;0.17;;;28.60;53.90;;;;;;5048722;28;20028;-80
2023/04/30 09:46:33;;;;;;;0.00;0.00;;;30.50;55.00;;;;;;5052369;28;20090;-80
2023/04/30 09:49:01;;;;;;;0.00;0.00;;;29.30;53.30;;;;;;5054594;28;20024;-80
2023/04/30 09:51:27;;;;;;;0.00;0.00;;;30.70;50.70;;;;;;5047209;28;20049;-80
2023/04/30 09:53:53;;;;;;;;;;;31.80;49.30;;;;;;5049844;28;20033;-80
2023/04/30 09:56:24;;;;;;;0.00;0.00;;;32.90;50.80;;;;;;5050313;28;19924;-80
2023/04/30 09:58:53;;;;;;;0.00;0.00;;;32.90;47.40;;;;;;5042267;28;20056;-79
2023/04/30 10:01:20;;;;;;;0.00;0.00;;;30.70;49.20;;;;;;5051856;28;20105;-79
2023/04/30 10:03:47;;;;;;;0.00;0.00;;;30.60;48.40;;;;;;5054423;28;20495;-80
2023/04/30 10:06:15;;;;;;;0.10;0.10;;;31.10;48.90;;;;;;5052695;28;20496;-79
2023/04/30 10:08:42;;;;;;;0.00;0.00;;;31.50;49.60;;;;;;5053528;28;20024;-80
2023/04/30 10:11:15;;;;;;;0.00;0.00;;;32.10;47.80;;;;;;5048505;28;20033;-80
2023/04/30 10:13:49;;;;;;;0.00;0.00;;;33.00;47.20;;;;;;5048528;28;20025;-79
2023/04/30 10:16:38;;;;;;;0.00;0.00;;;32.70;46.80;;;;;;5057818;28;20160;-79
2023/04/30 10:19:17;;;;;;;0.00;0.00;;;31.00;45.10;;;;;;5042091;28;20116;-79
2023/04/30 10:21:45;;;;;;;0.00;0.00;;;31.20;45.60;;;;;;5045439;28;20020;-79
2023/04/30 10:24:13;;;;;;;0.00;0.00;;;31.20;46.00;;;;;;5054568;28;20025;-79
2023/04/30 10:26:40;;;;;;;0.00;0.00;;;29.50;48.00;;;;;;5025681;28;20079;-79
2023/04/30 10:29:07;;;;;;;0.00;0.00;;;28.40;45.30;;;;;;5050622;28;20029;-79
2023/04/30 10:31:34;;;;;;;0.00;0.00;;;27.60;49.60;;;;;;5046503;28;20488;-79
2023/04/30 10:34:12;;;;;;;0.05;0.05;;;27.70;51.00;;;;;;5043458;28;20032;-79
2023/04/30 10:36:53;;;;;;;0.10;0.10;;;28.10;51.70;;;;;;5048724;28;20021;-79
2023/04/30 10:39:26;;;;;;;0.00;0.00;;;27.60;51.80;;;;;;5049937;28;20040;-80
2023/04/30 10:42:03;;;;;;;0.00;0.00;;;27.70;53.50;;;;;;5039833;28;20787;-80
2023/04/30 10:44:33;;;;;;;0.20;0.20;;;27.50;51.70;;;;;;5033574;28;20035;-80
2023/04/30 10:47:01;;;;;;;0.00;0.00;;;27.10;50.50;;;;;;5037387;28;20418;-80
2023/04/30 10:49:27;;;;;;;0.52;0.20;;;26.50;52.00;;;;;;5058131;28;20107;-80
2023/04/30 10:51:53;;;;;;;0.00;0.00;;;27.00;51.90;;;;;;5036859;28;20032;-79
2023/04/30 10:54:31;;;;;;;0.00;0.00;;;26.90;48.80;;;;;;5037781;28;20736;-79
2023/04/30 10:57:17;;;;;;;0.00;0.00;;;27.20;49.70;;;;;;5046003;28;20166;-79
2023/04/30 11:00:05;;;;;;;0.10;0.10;;;26.80;50.40;;;;;;5045502;28;20029;-80
2023/04/30 11:02:55;;;;;;;0.00;0.00;;;27.10;51.30;;;;;;5049075;28;20036;-80
2023/04/30 11:05:36;;;;;;;0.00;0.00;;;27.00;53.10;;;;;;5051486;28;20029;-79
2023/04/30 11:08:03;;;;;;;0.15;0.05;;;26.40;49.70;;;;;;5055999;28;20032;-80
2023/04/30 11:10:34;;;;;;;0.20;0.20;;;25.90;55.60;;;;;;5032651;28;20036;-80
2023/04/30 11:13:09;;;;;;;0.00;0.00;;;25.30;54.10;;;;;;5033749;28;20446;-79
2023/04/30 11:15:44;;;;;;;0.00;0.00;;;25.70;55.80;;;;;;5030505;28;20566;-79
2023/04/30 11:18:12;;;;;;;0.00;0.00;;;25.10;53.10;;;;;;5039752;28;20041;-79
2023/04/30 11:20:51;;;;;;;0.10;0.10;;;24.70;57.00;;;;;;5049278;28;20275;-79
2023/04/30 11:23:22;;;;;;;0.00;0.00;;;25.10;59.00;;;;;;5033448;28;20039;-80
2023/04/30 11:25:48;;;;;;;0.00;0.00;;;25.10;58.60;;;;;;5032118;28;20041;-80
2023/04/30 11:28:24;;;;;;;0.00;0.00;;;24.60;57.70;;;;;;5057640;28;20035;-79
2023/04/30 11:30:50;;;;;;;0.00;0.00;;;25.10;56.50;;;;;;5033923;28;20059;-79
2023/04/30 11:33:16;;;;;;;0.00;0.00;;;25.30;56.90;;;;;;5059369;28;20120;-80
2023/04/30 11:35:42;;;;;;;;;;;25.50;56.80;;;;;;5056251;28;20133;-79
2023/04/30 11:38:08;;;;;;;;;;;25.70;55.10;;;;;;5041757;28;19912;-80
2023/04/30 11:40:35;;;;;;;0.00;0.00;;;25.50;55.30;;;;;;5030310;28;19915;-80
2023/04/30 11:43:01;;;;;;;0.00;0.00;;;25.60;55.20;;;;;;5050417;28;20044;-79
2023/04/30 11:45:26;;;;;;;0.00;0.00;;;25.50;55.60;;;;;;5047337;28;20036;-79
2023/04/30 11:47:53;;;;;;;0.00;0.00;;;25.50;54.70;;;;;;5048045;28;20033;-80
2023/04/30 11:50:28;;;;;;;0.47;0.35;;;25.50;56.20;;;;;;5037571;28;20799;-82
2023/04/30 11:52:56;;;;;;;0.00;0.00;;;25.30;58.30;;;;;;5029477;28;20033;-80
2023/04/30 11:55:24;;;;;;;0.13;0.13;;;25.30;59.10;;;;;;5038820;28;20033;-80
2023/04/30 11:57:53;;;;;;;0.00;0.00;;;25.20;57.70;;;;;;5045509;28;20124;-79
2023/04/30 12:00:29;;;;;;;0.10;0.10;;;25.10;58.00;;;;;;5054769;28;20103;-80
2023/04/30 12:02:56;;;;;;;0.00;0.00;;;24.00;58.30;;;;;;5037151;28;20037;-80
2023/04/30 12:05:23;;;;;;;0.15;0.15;;;23.80;60.00;;;;;;5060326;28;20041;-80
2023/04/30 12:07:54;;;;;;;0.00;0.00;;;24.40;59.80;;;;;;5051951;28;20020;-80
2023/04/30 12:10:21;;;;;;;0.20;0.17;;;24.70;55.90;;;;;;5054748;28;20024;-80
2023/04/30 12:12:51;;;;;;;0.00;0.00;;;24.90;56.10;;;;;;5045540;28;20037;-79
2023/04/30 12:15:21;;;;;;;0.00;0.00;;;24.80;56.80;;;;;;5056674;28;20754;-79
2023/04/30 12:17:47;;;;;;;0.00;0.00;;;24.70;56.60;;;;;;5038780;28;20095;-81
2023/04/30 12:20:14;;;;;;;0.00;0.00;;;24.80;56.70;;;;;;5058310;28;20418;-76
2023/04/30 12:22:41;;;;;;;0.00;0.00;;;24.80;57.10;;;;;;5052597;28;20040;-77
2023/04/30 12:25:18;;;;;;;0.17;0.17;;;24.60;56.10;;;;;;5060719;28;20025;-77
2023/04/30 12:27:46;;;;;;;0.17;0.10;;;24.60;56.10;;;;;;5050297;28;20029;-77
2023/04/30 12:30:12;;;;;;;0.00;0.00;;;24.30;56.50;;;;;;5050573;28;20050;-77
2023/04/30 12:32:50;;;;;;;0.00;0.00;;;24.30;58.00;;;;;;5049025;28;20514;-77
2023/04/30 12:35:20;;;;;;;0.10;0.10;;;24.60;56.90;;;;;;5035606;28;20098;-76
2023/04/30 12:37:53;;;;;;;0.00;0.00;;;24.40;57.60;;;;;;5044499;28;20021;-76
2023/04/30 12:40:26;;;;;;;0.00;0.00;;;24.00;55.70;;;;;;5029878;28;20061;-76
2023/04/30 12:43:01;;;;;;;0.10;0.10;;;23.80;56.90;;;;;;5044900;28;20029;-78
2023/04/30 12:45:54;;;;;;;0.00;0.00;;;23.50;59.60;;;;;;5045172;28;20112;-80
2023/04/30 12:48:24;;;;;;;0.00;0.00;;;23.30;60.50;;;;;;5046739;28;20025;-77
2023/04/30 12:51:00;;;;;;;0.00;0.00;;;23.00;59.50;;;;;;5057563;28;20116;-75
2023/04/30 12:53:26;;;;;;;0.00;0.00;;;22.90;61.20;;;;;;5044458;28;20031;-79
2023/04/30 12:56:08;;;;;;;;;;;22.50;57.30;;;;;;5059209;28;20043;-77